Kauhale Kai — V7MC9 — position and weather

sailwx.info

Track history (hours):
 
Tides and Currents Weather Stations Pressure Air Temp Water Temp Dewpoint Dewpoint Depression Visibility Wind Speed Wind Dir Waves Ship Positions

Kauhale Kai

Last reported at 2014-Jul-30 09:13 UTC. Time now 2014-Jul-30 11:19 UTC.
Position N 32°42' W 117°10'.

; draft 2.8 m.

Type: Pleasure craft. MMSI: 538070338.

Date/timePositionNaut miles runAvg speedWind from/ knotsBaromVisibWave heightAir tempDewpointWater temp
2014-Jul-30 09:13N 32°42' W 117°10'0 0.0
2014-Jul-30 06:13N 32°42' W 117°10'0 0.0
2014-Jul-30 01:25N 32°42' W 117°10'0 0.0
2014-Jul-29 23:22N 32°42' W 117°10'0 0.0
2014-Jul-29 22:28N 32°42' W 117°10'0 0.0
2014-Jul-29 21:22N 32°42' W 117°10'0 0.0
2014-Jul-29 20:16N 32°42' W 117°10'0 0.0
2014-Jul-29 18:16N 32°42' W 117°10'0 0.0
2014-Jul-29 17:19N 32°42' W 117°10'0 0.0
2014-Jul-29 16:04N 32°42' W 117°10'0 0.0
2014-Jul-29 15:25N 32°42' W 117°10'0 0.0
2014-Jul-29 14:28N 32°42' W 117°10'0 0.0
2014-Jul-29 13:31N 32°42' W 117°10'0 0.0
2014-Jul-29 12:31N 32°42' W 117°10'0 0.0
2014-Jul-29 11:07N 32°42' W 117°10'0 0.0
2014-Jul-29 10:31N 32°42' W 117°10'0 0.0
2014-Jul-29 09:31N 32°42' W 117°10'0 0.0
2014-Jul-29 08:31N 32°42' W 117°10'0 0.0
2014-Jul-29 07:31N 32°42' W 117°10'0 0.0
2014-Jul-29 06:28N 32°42' W 117°10'0 0.0
2014-Jul-29 05:28N 32°42' W 117°10'0 0.0
2014-Jul-29 04:22N 32°42' W 117°10'0 0.0
2014-Jul-29 03:22N 32°42' W 117°10'0 0.0
2014-Jul-29 02:28N 32°42' W 117°10'0 0.0
2014-Jul-29 01:31N 32°42' W 117°10'0 0.0
2014-Jul-29 00:31N 32°42' W 117°10'0 0.0
2014-Jul-28 23:16N 32°42' W 117°10'0 0.0
2014-Jul-28 22:28N 32°42' W 117°10'0 0.0
2014-Jul-28 21:16N 32°42' W 117°10'0 0.0
2014-Jul-28 20:22N 32°42' W 117°10'0 0.0
2014-Jul-28 19:28N 32°42' W 117°10'0 0.0
2014-Jul-28 17:13N 32°42' W 117°10'0 0.0
2014-Jul-28 12:25N 32°42' W 117°10'0 0.0
2014-Jul-28 11:22N 32°42' W 117°10'0 0.0
2014-Jul-28 09:25N 32°42' W 117°10'0 0.0
2014-Jul-28 08:19N 32°42' W 117°10'0 0.0
2014-Jul-28 07:13N 32°42' W 117°10'0 0.0
2014-Jul-28 05:31N 32°42' W 117°10'0 0.0
2014-Jul-28 04:19N 32°42' W 117°10'0 0.0
2014-Jul-27 22:07N 32°42' W 117°10'0 0.0
2014-Jul-27 21:31N 32°42' W 117°10'0 0.0
2014-Jul-27 15:07N 32°42' W 117°10'2 4.4
2014-Jul-27 14:33N 32°43' W 117°13'5 5.0
2014-Jul-27 13:33N 32°40' W 117°17'8 8.2
2014-Jul-27 12:33N 32°45' W 117°24'8 8.2
2014-Jul-27 11:33N 32°50' W 117°32'8 8.0
2014-Jul-27 10:33N 32°55' W 117°39'8 7.9
2014-Jul-27 09:33N 32°60' W 117°47'8 7.7
2014-Jul-27 08:33N 33°04' W 117°54'8 8.2
2014-Jul-27 07:33N 33°10' W 118°02'8 8.4
2014-Jul-27 06:33N 33°15' W 118°10'8 8.1
2014-Jul-27 05:33N 33°20' W 118°17'2 2.2
2014-Jul-27 04:33N 33°21' W 118°20'0 0.0
2014-Jul-27 03:33N 33°21' W 118°20'0 0.0
2014-Jul-27 02:31N 33°21' W 118°20'0 0.0
2014-Jul-27 01:33N 33°21' W 118°20'0 0.1
2014-Jul-27 00:33N 33°21' W 118°19'0 0.0
2014-Jul-26 23:33N 33°21' W 118°19'0 0.0
2014-Jul-26 22:33N 33°21' W 118°19'0 0.1
2014-Jul-26 21:33N 33°21' W 118°20'0 0.1
2014-Jul-26 20:34N 33°21' W 118°19'0 0.1
2014-Jul-26 19:33N 33°21' W 118°20'0 0.0
2014-Jul-26 18:33N 33°21' W 118°20'13 5.4
2014-Jul-26 16:13N 33°33' W 118°15'13 1.3
2014-Jul-26 06:11N 33°45' W 118°10'1 0.2
2014-Jul-26 00:27N 33°45' W 118°11'7 7.6
2014-Jul-25 23:31N 33°38' W 118°09'22 7.1
2014-Jul-25 20:30N 33°20' W 117°56'8 8.0
2014-Jul-25 19:33N 33°14' W 117°50'8 8.2
2014-Jul-25 18:34N 33°08' W 117°44'8 8.0
2014-Jul-25 17:34N 33°01' W 117°38'8 7.9
2014-Jul-25 16:33N 32°55' W 117°32'8 7.9
2014-Jul-25 15:34N 32°49' W 117°26'8 7.9
2014-Jul-25 14:33N 32°43' W 117°20'7 6.4
2014-Jul-25 13:31N 32°39' W 117°14'5 4.9
2014-Jul-25 12:34N 32°43' W 117°11'1 0.4
2014-Jul-25 10:28N 32°42' W 117°10'0 0.0
2014-Jul-25 09:31N 32°42' W 117°10'0 0.0
2014-Jul-25 07:28N 32°42' W 117°10'0 0.0
2014-Jul-25 06:10N 32°42' W 117°10'0 0.0
2014-Jul-25 05:28N 32°42' W 117°10'0 0.0
2014-Jul-25 04:28N 32°42' W 117°10'0 0.0
2014-Jul-25 03:25N 32°42' W 117°10'0 0.0
2014-Jul-25 02:28N 32°42' W 117°10'0 0.0
2014-Jul-25 01:28N 32°42' W 117°10'0 0.0
2014-Jul-25 00:22N 32°42' W 117°10'0 0.0
2014-Jul-24 17:10N 32°42' W 117°10'0 0.0
2014-Jul-24 04:28N 32°42' W 117°10'0 0.0
2014-Jul-24 03:28N 32°42' W 117°10'0 0.0
2014-Jul-24 00:04N 32°42' W 117°10'0 0.0
2014-Jul-23 23:16N 32°42' W 117°10'0 0.0
2014-Jul-23 22:19N 32°42' W 117°10'0 0.0
2014-Jul-23 21:19N 32°42' W 117°10'0 0.0
2014-Jul-23 13:31N 32°42' W 117°10'0 0.0
2014-Jul-23 12:04N 32°42' W 117°10'0 0.0
2014-Jul-23 10:22N 32°42' W 117°10'0 0.0
2014-Jul-23 09:28N 32°42' W 117°10'0 0.0
2014-Jul-23 08:28N 32°42' W 117°10'0 0.0
2014-Jul-23 07:22N 32°42' W 117°10'0 0.0
2014-Jul-23 06:28N 32°42' W 117°10'0 0.0
2014-Jul-23 05:25N 32°42' W 117°10'0 0.0
2014-Jul-23 00:31N 32°42' W 117°10'0 0.0
2014-Jul-22 23:16N 32°42' W 117°10'0 0.0
2014-Jul-22 22:31N 32°42' W 117°10'0 0.0
2014-Jul-22 21:28N 32°42' W 117°10'0 0.0
2014-Jul-22 18:31N 32°42' W 117°10'0 0.0
2014-Jul-22 17:31N 32°42' W 117°10'0 0.0
2014-Jul-22 16:28N 32°42' W 117°10'0 0.0
2014-Jul-22 15:28N 32°42' W 117°10'0 0.0
2014-Jul-22 13:31N 32°42' W 117°10'0 0.0
2014-Jul-22 12:07N 32°42' W 117°10'0 0.0
2014-Jul-22 11:04N 32°42' W 117°10'0 0.0
2014-Jul-22 10:28N 32°42' W 117°10'0 0.0
2014-Jul-22 09:16N 32°42' W 117°10'0 0.0
2014-Jul-22 07:10N 32°42' W 117°10'0 0.0
2014-Jul-22 06:28N 32°42' W 117°10'0 0.0
2014-Jul-22 05:31N 32°42' W 117°10'0 0.0
2014-Jul-22 04:19N 32°42' W 117°10'0 0.0
2014-Jul-22 03:19N 32°42' W 117°10'0 0.0
2014-Jul-22 02:28N 32°42' W 117°10'0 0.0
2014-Jul-22 01:31N 32°42' W 117°10'0 0.0
2014-Jul-22 00:31N 32°42' W 117°10'0 0.0
2014-Jul-21 23:28N 32°42' W 117°10'0 0.0
2014-Jul-21 22:31N 32°42' W 117°10'0 0.0
2014-Jul-21 21:31N 32°42' W 117°10'0 0.0
2014-Jul-21 20:31N 32°42' W 117°10'0 0.0
2014-Jul-21 20:16N 32°42' W 117°10'0 0.0
2014-Jul-21 19:31N 32°42' W 117°10'0 0.0
2014-Jul-21 18:31N 32°42' W 117°10'0 0.0
2014-Jul-21 17:31N 32°42' W 117°10'0 0.0
2014-Jul-21 16:31N 32°42' W 117°10'0 0.0
2014-Jul-21 15:31N 32°42' W 117°10'0 0.0
2014-Jul-21 14:31N 32°42' W 117°10'0 0.0
2014-Jul-21 13:31N 32°42' W 117°10'0 0.0
2014-Jul-21 12:31N 32°42' W 117°10'0 0.0
2014-Jul-21 11:31N 32°42' W 117°10'0 0.0
2014-Jul-21 10:25N 32°42' W 117°10'0 0.0
2014-Jul-21 09:28N 32°42' W 117°10'0 0.0
2014-Jul-21 08:25N 32°42' W 117°10'0 0.0
2014-Jul-21 07:31N 32°42' W 117°10'0 0.0
2014-Jul-21 06:31N 32°42' W 117°10'0 0.0
2014-Jul-21 05:31N 32°42' W 117°10'0 0.0
2014-Jul-21 04:31N 32°42' W 117°10'0 0.0
2014-Jul-21 03:31N 32°42' W 117°10'0 0.0
2014-Jul-21 02:31N 32°42' W 117°10'0 0.0
2014-Jul-21 01:28N 32°42' W 117°10'0 0.0
2014-Jul-21 00:28N 32°42' W 117°10'0 0.0
2014-Jul-20 23:31N 32°42' W 117°10'0 0.0
2014-Jul-20 22:31N 32°42' W 117°10'0 0.0
2014-Jul-20 21:31N 32°42' W 117°10'0 0.0
2014-Jul-20 20:28N 32°42' W 117°10'0 0.0
2014-Jul-20 19:31N 32°42' W 117°10'0 0.0
2014-Jul-20 18:31N 32°42' W 117°10'0 0.0
2014-Jul-20 17:31N 32°42' W 117°10'0 0.0
2014-Jul-20 16:31N 32°42' W 117°10'0 0.0
2014-Jul-20 15:31N 32°42' W 117°10'0 0.0
2014-Jul-20 14:31N 32°42' W 117°10'0 0.0
2014-Jul-20 13:31N 32°42' W 117°10'0 0.0
2014-Jul-20 12:31N 32°42' W 117°10'0 0.0
2014-Jul-20 11:28N 32°42' W 117°10'0 0.0
2014-Jul-20 10:25N 32°42' W 117°10'0 0.0
2014-Jul-20 09:25N 32°42' W 117°10'  
Track history (hours):
 
Tides and Currents Weather Stations Pressure Air Temp Water Temp Dewpoint Dewpoint Depression Visibility Wind Speed Wind Dir Waves Ship Positions

Kauhale Kai

Last reported at 2014-Jul-30 09:13 UTC. Time now 2014-Jul-30 11:19 UTC.
Position N 32°42' W 117°10'.

; draft 2.8 m.

Type: Pleasure craft. MMSI: 538070338.

Date/timePositionNaut miles runAvg speedWind from/ knotsBaromVisibWave heightAir tempDewpointWater temp
2014-Jul-30 09:13N 32°42' W 117°10'0 0.0
2014-Jul-30 06:13N 32°42' W 117°10'0 0.0
2014-Jul-30 01:25N 32°42' W 117°10'0 0.0
2014-Jul-29 23:22N 32°42' W 117°10'0 0.0
2014-Jul-29 22:28N 32°42' W 117°10'0 0.0
2014-Jul-29 21:22N 32°42' W 117°10'0 0.0
2014-Jul-29 20:16N 32°42' W 117°10'0 0.0
2014-Jul-29 18:16N 32°42' W 117°10'0 0.0
2014-Jul-29 17:19N 32°42' W 117°10'0 0.0
2014-Jul-29 16:04N 32°42' W 117°10'0 0.0
2014-Jul-29 15:25N 32°42' W 117°10'0 0.0
2014-Jul-29 14:28N 32°42' W 117°10'0 0.0
2014-Jul-29 13:31N 32°42' W 117°10'0 0.0
2014-Jul-29 12:31N 32°42' W 117°10'0 0.0
2014-Jul-29 11:07N 32°42' W 117°10'0 0.0
2014-Jul-29 10:31N 32°42' W 117°10'0 0.0
2014-Jul-29 09:31N 32°42' W 117°10'0 0.0
2014-Jul-29 08:31N 32°42' W 117°10'0 0.0
2014-Jul-29 07:31N 32°42' W 117°10'0 0.0
2014-Jul-29 06:28N 32°42' W 117°10'0 0.0
2014-Jul-29 05:28N 32°42' W 117°10'0 0.0
2014-Jul-29 04:22N 32°42' W 117°10'0 0.0
2014-Jul-29 03:22N 32°42' W 117°10'0 0.0
2014-Jul-29 02:28N 32°42' W 117°10'0 0.0
2014-Jul-29 01:31N 32°42' W 117°10'0 0.0
2014-Jul-29 00:31N 32°42' W 117°10'0 0.0
2014-Jul-28 23:16N 32°42' W 117°10'0 0.0
2014-Jul-28 22:28N 32°42' W 117°10'0 0.0
2014-Jul-28 21:16N 32°42' W 117°10'0 0.0
2014-Jul-28 20:22N 32°42' W 117°10'0 0.0
2014-Jul-28 19:28N 32°42' W 117°10'0 0.0
2014-Jul-28 17:13N 32°42' W 117°10'0 0.0
2014-Jul-28 12:25N 32°42' W 117°10'0 0.0
2014-Jul-28 11:22N 32°42' W 117°10'0 0.0
2014-Jul-28 09:25N 32°42' W 117°10'0 0.0
2014-Jul-28 08:19N 32°42' W 117°10'0 0.0
2014-Jul-28 07:13N 32°42' W 117°10'0 0.0
2014-Jul-28 05:31N 32°42' W 117°10'0 0.0
2014-Jul-28 04:19N 32°42' W 117°10'0 0.0
2014-Jul-27 22:07N 32°42' W 117°10'0 0.0
2014-Jul-27 21:31N 32°42' W 117°10'0 0.0
2014-Jul-27 15:07N 32°42' W 117°10'2 4.4
2014-Jul-27 14:33N 32°43' W 117°13'5 5.0
2014-Jul-27 13:33N 32°40' W 117°17'8 8.2
2014-Jul-27 12:33N 32°45' W 117°24'8 8.2
2014-Jul-27 11:33N 32°50' W 117°32'8 8.0
2014-Jul-27 10:33N 32°55' W 117°39'8 7.9
2014-Jul-27 09:33N 32°60' W 117°47'8 7.7
2014-Jul-27 08:33N 33°04' W 117°54'8 8.2
2014-Jul-27 07:33N 33°10' W 118°02'8 8.4
2014-Jul-27 06:33N 33°15' W 118°10'8 8.1
2014-Jul-27 05:33N 33°20' W 118°17'2 2.2
2014-Jul-27 04:33N 33°21' W 118°20'0 0.0
2014-Jul-27 03:33N 33°21' W 118°20'0 0.0
2014-Jul-27 02:31N 33°21' W 118°20'0 0.0
2014-Jul-27 01:33N 33°21' W 118°20'0 0.1
2014-Jul-27 00:33N 33°21' W 118°19'0 0.0
2014-Jul-26 23:33N 33°21' W 118°19'0 0.0
2014-Jul-26 22:33N 33°21' W 118°19'0 0.1
2014-Jul-26 21:33N 33°21' W 118°20'0 0.1
2014-Jul-26 20:34N 33°21' W 118°19'0 0.1
2014-Jul-26 19:33N 33°21' W 118°20'0 0.0
2014-Jul-26 18:33N 33°21' W 118°20'13 5.4
2014-Jul-26 16:13N 33°33' W 118°15'13 1.3
2014-Jul-26 06:11N 33°45' W 118°10'1 0.2
2014-Jul-26 00:27N 33°45' W 118°11'7 7.6
2014-Jul-25 23:31N 33°38' W 118°09'22 7.1
2014-Jul-25 20:30N 33°20' W 117°56'8 8.0
2014-Jul-25 19:33N 33°14' W 117°50'8 8.2
2014-Jul-25 18:34N 33°08' W 117°44'8 8.0
2014-Jul-25 17:34N 33°01' W 117°38'8 7.9
2014-Jul-25 16:33N 32°55' W 117°32'8 7.9
2014-Jul-25 15:34N 32°49' W 117°26'8 7.9
2014-Jul-25 14:33N 32°43' W 117°20'7 6.4
2014-Jul-25 13:31N 32°39' W 117°14'5 4.9
2014-Jul-25 12:34N 32°43' W 117°11'1 0.4
2014-Jul-25 10:28N 32°42' W 117°10'0 0.0
2014-Jul-25 09:31N 32°42' W 117°10'0 0.0
2014-Jul-25 07:28N 32°42' W 117°10'0 0.0
2014-Jul-25 06:10N 32°42' W 117°10'0 0.0
2014-Jul-25 05:28N 32°42' W 117°10'0 0.0
2014-Jul-25 04:28N 32°42' W 117°10'0 0.0
2014-Jul-25 03:25N 32°42' W 117°10'0 0.0
2014-Jul-25 02:28N 32°42' W 117°10'0 0.0
2014-Jul-25 01:28N 32°42' W 117°10'0 0.0
2014-Jul-25 00:22N 32°42' W 117°10'0 0.0
2014-Jul-24 17:10N 32°42' W 117°10'0 0.0
2014-Jul-24 04:28N 32°42' W 117°10'0 0.0
2014-Jul-24 03:28N 32°42' W 117°10'0 0.0
2014-Jul-24 00:04N 32°42' W 117°10'0 0.0
2014-Jul-23 23:16N 32°42' W 117°10'0 0.0
2014-Jul-23 22:19N 32°42' W 117°10'0 0.0
2014-Jul-23 21:19N 32°42' W 117°10'0 0.0
2014-Jul-23 13:31N 32°42' W 117°10'0 0.0
2014-Jul-23 12:04N 32°42' W 117°10'0 0.0
2014-Jul-23 10:22N 32°42' W 117°10'0 0.0
2014-Jul-23 09:28N 32°42' W 117°10'0 0.0
2014-Jul-23 08:28N 32°42' W 117°10'0 0.0
2014-Jul-23 07:22N 32°42' W 117°10'0 0.0
2014-Jul-23 06:28N 32°42' W 117°10'0 0.0
2014-Jul-23 05:25N 32°42' W 117°10'0 0.0
2014-Jul-23 00:31N 32°42' W 117°10'0 0.0
2014-Jul-22 23:16N 32°42' W 117°10'0 0.0
2014-Jul-22 22:31N 32°42' W 117°10'0 0.0
2014-Jul-22 21:28N 32°42' W 117°10'0 0.0
2014-Jul-22 18:31N 32°42' W 117°10'0 0.0
2014-Jul-22 17:31N 32°42' W 117°10'0 0.0
2014-Jul-22 16:28N 32°42' W 117°10'0 0.0
2014-Jul-22 15:28N 32°42' W 117°10'0 0.0
2014-Jul-22 13:31N 32°42' W 117°10'0 0.0
2014-Jul-22 12:07N 32°42' W 117°10'0 0.0
2014-Jul-22 11:04N 32°42' W 117°10'0 0.0
2014-Jul-22 10:28N 32°42' W 117°10'0 0.0
2014-Jul-22 09:16N 32°42' W 117°10'0 0.0
2014-Jul-22 07:10N 32°42' W 117°10'0 0.0
2014-Jul-22 06:28N 32°42' W 117°10'0 0.0
2014-Jul-22 05:31N 32°42' W 117°10'0 0.0
2014-Jul-22 04:19N 32°42' W 117°10'0 0.0
2014-Jul-22 03:19N 32°42' W 117°10'0 0.0
2014-Jul-22 02:28N 32°42' W 117°10'0 0.0
2014-Jul-22 01:31N 32°42' W 117°10'0 0.0
2014-Jul-22 00:31N 32°42' W 117°10'0 0.0
2014-Jul-21 23:28N 32°42' W 117°10'0 0.0
2014-Jul-21 22:31N 32°42' W 117°10'0 0.0
2014-Jul-21 21:31N 32°42' W 117°10'0 0.0
2014-Jul-21 20:31N 32°42' W 117°10'0 0.0
2014-Jul-21 20:16N 32°42' W 117°10'0 0.0
2014-Jul-21 19:31N 32°42' W 117°10'0 0.0
2014-Jul-21 18:31N 32°42' W 117°10'0 0.0
2014-Jul-21 17:31N 32°42' W 117°10'0 0.0
2014-Jul-21 16:31N 32°42' W 117°10'0 0.0
2014-Jul-21 15:31N 32°42' W 117°10'0 0.0
2014-Jul-21 14:31N 32°42' W 117°10'0 0.0
2014-Jul-21 13:31N 32°42' W 117°10'0 0.0
2014-Jul-21 12:31N 32°42' W 117°10'0 0.0
2014-Jul-21 11:31N 32°42' W 117°10'0 0.0
2014-Jul-21 10:25N 32°42' W 117°10'0 0.0
2014-Jul-21 09:28N 32°42' W 117°10'0 0.0
2014-Jul-21 08:25N 32°42' W 117°10'0 0.0
2014-Jul-21 07:31N 32°42' W 117°10'0 0.0
2014-Jul-21 06:31N 32°42' W 117°10'0 0.0
2014-Jul-21 05:31N 32°42' W 117°10'0 0.0
2014-Jul-21 04:31N 32°42' W 117°10'0 0.0
2014-Jul-21 03:31N 32°42' W 117°10'0 0.0
2014-Jul-21 02:31N 32°42' W 117°10'0 0.0
2014-Jul-21 01:28N 32°42' W 117°10'0 0.0
2014-Jul-21 00:28N 32°42' W 117°10'0 0.0
2014-Jul-20 23:31N 32°42' W 117°10'0 0.0
2014-Jul-20 22:31N 32°42' W 117°10'0 0.0
2014-Jul-20 21:31N 32°42' W 117°10'0 0.0
2014-Jul-20 20:28N 32°42' W 117°10'0 0.0
2014-Jul-20 19:31N 32°42' W 117°10'0 0.0
2014-Jul-20 18:31N 32°42' W 117°10'0 0.0
2014-Jul-20 17:31N 32°42' W 117°10'0 0.0
2014-Jul-20 16:31N 32°42' W 117°10'0 0.0
2014-Jul-20 15:31N 32°42' W 117°10'0 0.0
2014-Jul-20 14:31N 32°42' W 117°10'0 0.0
2014-Jul-20 13:31N 32°42' W 117°10'0 0.0
2014-Jul-20 12:31N 32°42' W 117°10'0 0.0
2014-Jul-20 11:28N 32°42' W 117°10'0 0.0
2014-Jul-20 10:25N 32°42' W 117°10'0 0.0
2014-Jul-20 09:25N 32°42' W 117°10'  

Dump ship's entire track history